createdAt,value
2023-03-12T00:00:31.840Z,3.77
2023-03-12T00:02:58.206Z,5.13
2023-03-12T00:05:25.846Z,9.23
2023-03-12T00:07:52.559Z,8.93
2023-03-12T00:10:19.470Z,3.33
2023-03-12T00:12:46.188Z,5.83
2023-03-12T00:15:12.876Z,4.60
2023-03-12T00:17:39.238Z,4.60
2023-03-12T00:20:08.292Z,8.70
2023-03-12T00:22:34.797Z,4.57
2023-03-12T00:25:01.273Z,6.50
2023-03-12T00:27:27.761Z,7.40
2023-03-12T00:29:54.482Z,12.00
2023-03-12T00:32:20.818Z,5.97
2023-03-12T00:34:51.423Z,5.63
2023-03-12T00:37:17.751Z,5.50
2023-03-12T00:39:44.078Z,3.83
2023-03-12T00:42:10.389Z,3.57
2023-03-12T00:44:36.814Z,4.10
2023-03-12T00:47:03.292Z,4.93
2023-03-12T00:49:29.627Z,5.47
2023-03-12T00:51:55.945Z,5.97
2023-03-12T00:54:22.789Z,7.20
2023-03-12T00:56:49.284Z,15.57
2023-03-12T00:59:16.351Z,6.63
2023-03-12T01:01:44.081Z,7.47
2023-03-12T01:04:10.456Z,7.70
2023-03-12T01:06:36.856Z,6.23
2023-03-12T01:09:05.235Z,6.17
2023-03-12T01:11:32.789Z,7.97
2023-03-12T01:14:00.166Z,7.87
2023-03-12T01:16:28.331Z,6.33
2023-03-12T01:18:55.134Z,6.50
2023-03-12T01:21:21.584Z,7.80
2023-03-12T01:23:47.965Z,7.67
2023-03-12T01:26:14.799Z,4.57
2023-03-12T01:28:41.115Z,6.83
2023-03-12T01:31:08.897Z,8.37
2023-03-12T01:33:35.354Z,5.77
2023-03-12T01:36:01.833Z,6.33
2023-03-12T01:38:28.330Z,11.53
2023-03-12T01:40:54.653Z,9.77
2023-03-12T01:43:32.107Z,7.83
2023-03-12T01:46:00.559Z,10.37
2023-03-12T01:48:28.073Z,6.77
2023-03-12T01:50:54.587Z,8.20
2023-03-12T01:53:20.962Z,6.70
2023-03-12T01:55:47.428Z,5.20
2023-03-12T01:58:13.883Z,6.27
2023-03-12T02:00:40.234Z,7.17
2023-03-12T02:03:08.451Z,4.73
2023-03-12T02:05:40.898Z,7.17
2023-03-12T02:08:07.319Z,5.47
2023-03-12T02:10:33.650Z,7.80
2023-03-12T02:13:00.108Z,6.30
2023-03-12T02:15:26.844Z,6.20
2023-03-12T02:17:54.229Z,6.20
2023-03-12T02:20:22.426Z,7.83
2023-03-12T02:22:57.523Z,10.90
2023-03-12T02:25:30.905Z,6.03
2023-03-12T02:27:58.545Z,7.30
2023-03-12T02:30:25.528Z,8.53
2023-03-12T02:32:51.908Z,5.90
2023-03-12T02:35:19.352Z,5.97
2023-03-12T02:37:55.970Z,6.40
2023-03-12T02:40:25.279Z,5.40
2023-03-12T02:42:52.321Z,4.50
2023-03-12T02:45:18.710Z,6.57
2023-03-12T02:47:46.835Z,5.40
2023-03-12T02:50:13.197Z,6.67
2023-03-12T02:52:40.044Z,4.83
2023-03-12T02:55:07.233Z,5.67
2023-03-12T02:57:37.479Z,6.47
2023-03-12T03:00:09.888Z,6.43
2023-03-12T03:02:36.214Z,6.20
2023-03-12T03:05:02.616Z,4.93
2023-03-12T03:07:28.928Z,6.60
2023-03-12T03:09:55.386Z,5.10
2023-03-12T03:12:22.896Z,9.67
2023-03-12T03:14:49.178Z,3.77
2023-03-12T03:17:15.614Z,7.50
2023-03-12T03:19:42.060Z,3.97
2023-03-12T03:22:08.464Z,7.47
2023-03-12T03:24:36.216Z,5.50
2023-03-12T03:27:02.629Z,3.80
2023-03-12T03:29:28.943Z,5.83
2023-03-12T03:31:55.253Z,5.57
2023-03-12T03:34:21.554Z,8.23
2023-03-12T03:36:47.852Z,8.37
2023-03-12T03:39:14.238Z,6.23
2023-03-12T03:41:41.667Z,6.10
2023-03-12T03:44:08.058Z,5.27
2023-03-12T03:46:35.595Z,8.30
2023-03-12T03:49:02.005Z,14.30
2023-03-12T03:51:28.430Z,3.80
2023-03-12T03:53:54.860Z,7.40
2023-03-12T03:56:21.272Z,5.97
2023-03-12T03:58:47.614Z,4.50
2023-03-12T04:01:14.687Z,8.73
2023-03-12T04:03:41.531Z,7.67
2023-03-12T04:06:08.175Z,5.37
2023-03-12T04:08:35.573Z,10.73
2023-03-12T04:11:09.253Z,4.80
2023-03-12T04:13:35.737Z,5.83
2023-03-12T04:16:02.164Z,7.77
2023-03-12T04:18:29.982Z,6.20
2023-03-12T04:20:56.332Z,6.70
2023-03-12T04:23:22.646Z,7.57
2023-03-12T04:25:49.054Z,5.10
2023-03-12T04:28:15.556Z,8.57
2023-03-12T04:30:41.920Z,3.33
2023-03-12T04:33:08.375Z,5.50
2023-03-12T04:35:34.695Z,7.67
2023-03-12T04:38:01.506Z,3.20
2023-03-12T04:40:28.110Z,6.03
2023-03-12T04:42:54.507Z,5.07
2023-03-12T04:45:20.835Z,5.00
2023-03-12T04:47:47.207Z,7.20
2023-03-12T04:50:13.900Z,4.47
2023-03-12T04:52:40.282Z,6.73
2023-03-12T04:55:07.153Z,4.60
2023-03-12T04:57:33.596Z,10.60
2023-03-12T04:59:59.904Z,4.13
2023-03-12T05:02:26.288Z,5.13
2023-03-12T05:04:55.513Z,3.13
2023-03-12T05:07:21.957Z,3.83
2023-03-12T05:09:48.285Z,7.80
2023-03-12T05:12:14.824Z,5.20
2023-03-12T05:14:41.128Z,6.80
2023-03-12T05:17:07.535Z,8.47
2023-03-12T05:19:33.905Z,7.60
2023-03-12T05:22:00.423Z,5.50
2023-03-12T05:24:27.423Z,10.83
2023-03-12T05:26:53.765Z,8.40
2023-03-12T05:29:20.098Z,9.97
2023-03-12T05:31:46.554Z,6.63
2023-03-12T05:34:13.146Z,6.60
2023-03-12T05:36:39.812Z,6.93
2023-03-12T05:39:06.148Z,7.40
2023-03-12T05:41:33.511Z,13.00
2023-03-12T05:43:59.894Z,7.20
2023-03-12T05:46:26.976Z,11.07
2023-03-12T05:48:53.682Z,12.07
2023-03-12T05:51:20.189Z,7.40
2023-03-12T05:53:46.643Z,7.27
2023-03-12T05:56:14.738Z,13.13
2023-03-12T05:58:42.280Z,13.87
2023-03-12T06:01:16.356Z,10.03
2023-03-12T06:03:43.214Z,9.10
2023-03-12T06:06:09.860Z,9.30
2023-03-12T06:08:36.370Z,11.00
2023-03-12T06:11:02.934Z,15.47
2023-03-12T06:13:29.317Z,14.23
2023-03-12T06:16:01.646Z,9.30
2023-03-12T06:18:27.982Z,13.03
2023-03-12T06:20:54.285Z,10.80
2023-03-12T06:23:21.624Z,12.23
2023-03-12T06:25:47.977Z,9.73
2023-03-12T06:28:14.382Z,12.80
2023-03-12T06:30:40.708Z,12.97
2023-03-12T06:33:08.866Z,13.00
2023-03-12T06:35:35.215Z,14.07
2023-03-12T06:38:01.700Z,9.97
2023-03-12T06:40:28.028Z,12.40
2023-03-12T06:42:54.420Z,11.83
2023-03-12T06:45:20.764Z,11.97
2023-03-12T06:47:47.155Z,12.13
2023-03-12T06:50:13.504Z,14.47
2023-03-12T06:52:40.566Z,16.07
2023-03-12T06:55:07.126Z,10.83
2023-03-12T06:57:33.526Z,11.63
2023-03-12T06:59:59.836Z,13.30
2023-03-12T07:02:26.244Z,15.00
2023-03-12T07:04:52.673Z,12.50
2023-03-12T07:07:20.068Z,12.43
2023-03-12T07:09:46.491Z,10.50
2023-03-12T07:12:12.877Z,13.67
2023-03-12T07:14:39.184Z,15.73
2023-03-12T07:17:05.784Z,17.30
2023-03-12T07:19:32.186Z,12.77
2023-03-12T07:21:58.501Z,19.03
2023-03-12T07:24:24.927Z,18.13
2023-03-12T07:26:51.296Z,16.17
2023-03-12T07:29:17.730Z,13.90
2023-03-12T07:31:44.128Z,21.00
2023-03-12T07:34:10.650Z,17.70
2023-03-12T07:36:37.191Z,18.07
2023-03-12T07:39:04.575Z,17.87
2023-03-12T07:41:32.067Z,20.60
2023-03-12T07:43:58.418Z,22.17
2023-03-12T07:46:24.918Z,20.90
2023-03-12T07:48:51.271Z,18.70
2023-03-12T07:51:17.588Z,19.03
2023-03-12T07:53:44.339Z,22.07
2023-03-12T07:56:10.926Z,20.37
2023-03-12T07:58:38.617Z,16.90
2023-03-12T08:01:06.551Z,15.30
2023-03-12T08:03:33.058Z,21.90
2023-03-12T08:06:01.545Z,23.77
2023-03-12T08:08:28.428Z,19.67
2023-03-12T08:10:55.176Z,19.47
2023-03-12T08:13:23.691Z,21.27
2023-03-12T08:15:51.491Z,20.10
2023-03-12T08:18:18.461Z,21.83
2023-03-12T08:20:45.235Z,24.43
2023-03-12T08:23:12.043Z,22.93
2023-03-12T08:25:38.372Z,19.50
2023-03-12T08:28:04.887Z,24.57
2023-03-12T08:30:31.334Z,17.93
2023-03-12T08:32:58.045Z,19.43
2023-03-12T08:35:24.506Z,18.80
2023-03-12T08:37:50.893Z,21.03
2023-03-12T08:40:17.499Z,26.57
2023-03-12T08:42:46.955Z,22.37
2023-03-12T08:45:13.494Z,18.90
2023-03-12T08:47:41.671Z,22.70
2023-03-12T08:50:08.848Z,23.60
2023-03-12T08:52:35.261Z,17.40
2023-03-12T08:55:01.583Z,21.07
2023-03-12T08:57:28.163Z,14.73
2023-03-12T08:59:54.513Z,14.77
2023-03-12T09:02:20.792Z,17.20
2023-03-12T09:04:50.606Z,20.60
2023-03-12T09:07:19.631Z,17.17
2023-03-12T09:09:47.003Z,19.00
2023-03-12T09:12:13.403Z,11.87
2023-03-12T09:15:02.547Z,15.37
2023-03-12T09:17:28.286Z,9.50
2023-03-12T09:19:54.659Z,14.40
2023-03-12T09:22:21.159Z,9.20
2023-03-12T09:24:47.605Z,8.67
2023-03-12T09:27:14.110Z,13.20
2023-03-12T09:29:57.061Z,9.17
2023-03-12T09:32:27.279Z,14.53
2023-03-12T09:34:54.454Z,11.87
2023-03-12T09:37:23.757Z,11.03
2023-03-12T09:39:51.953Z,10.63
2023-03-12T09:42:31.280Z,14.67
2023-03-12T09:45:00.456Z,12.07
2023-03-12T09:47:29.604Z,13.73
2023-03-12T09:49:59.293Z,13.83
2023-03-12T09:52:29.224Z,18.60
2023-03-12T09:55:01.260Z,16.10
2023-03-12T09:57:29.864Z,14.33
2023-03-12T09:59:56.781Z,20.00
2023-03-12T10:02:29.294Z,13.07
2023-03-12T10:05:00.212Z,17.07
2023-03-12T10:07:27.830Z,12.17
2023-03-12T10:10:03.302Z,18.10
2023-03-12T10:12:47.395Z,14.30
2023-03-12T10:15:22.992Z,22.17
2023-03-12T10:18:10.253Z,27.00
2023-03-12T10:20:55.358Z,21.00
2023-03-12T10:23:28.034Z,20.23
2023-03-12T10:26:03.698Z,18.37
2023-03-12T10:28:36.152Z,19.57
2023-03-12T10:31:05.317Z,10.17
2023-03-12T10:33:44.727Z,8.50
2023-03-12T10:36:18.925Z,18.63
2023-03-12T10:38:45.513Z,19.77
2023-03-12T10:41:17.468Z,19.27
2023-03-12T10:43:45.128Z,19.43
2023-03-12T10:46:14.241Z,28.10
2023-03-12T10:48:41.107Z,16.33
2023-03-12T10:51:08.957Z,18.47
2023-03-12T10:53:38.354Z,20.43
2023-03-12T10:56:04.776Z,12.07
2023-03-12T10:58:32.090Z,18.30
2023-03-12T11:00:59.786Z,19.87
2023-03-12T11:03:26.743Z,34.47
2023-03-12T11:05:54.778Z,25.20
2023-03-12T11:08:23.687Z,30.67
2023-03-12T11:10:50.347Z,19.87
2023-03-12T11:13:25.584Z,28.07
2023-03-12T11:15:52.974Z,24.67
2023-03-12T11:18:25.446Z,19.63
2023-03-12T11:21:11.449Z,28.40
2023-03-12T11:23:39.407Z,23.03
2023-03-12T11:26:12.109Z,26.43
2023-03-12T11:28:42.989Z,22.23
2023-03-12T11:31:28.218Z,16.43
2023-03-12T11:33:57.545Z,18.40
2023-03-12T11:36:43.833Z,11.20
2023-03-12T11:39:28.976Z,26.83
2023-03-12T11:42:04.506Z,15.57
2023-03-12T11:44:39.976Z,23.50
2023-03-12T11:47:09.504Z,29.83
2023-03-12T11:49:44.987Z,25.17
2023-03-12T11:52:11.508Z,10.23
2023-03-12T11:54:56.196Z,25.70
2023-03-12T11:57:40.843Z,23.30
2023-03-12T12:00:14.598Z,18.63
2023-03-12T12:02:59.711Z,26.40
2023-03-12T12:05:26.106Z,21.87
2023-03-12T12:08:10.591Z,24.13
2023-03-12T12:10:36.868Z,33.17
2023-03-12T12:13:13.926Z,27.33
2023-03-12T12:15:58.890Z,29.63
2023-03-12T12:18:44.104Z,33.43
2023-03-12T12:21:16.550Z,29.70
2023-03-12T12:23:58.164Z,30.10
2023-03-12T12:26:36.730Z,27.67
2023-03-12T12:29:25.195Z,27.13
2023-03-12T12:31:55.361Z,22.73
2023-03-12T12:34:38.465Z,28.97
2023-03-12T12:37:20.787Z,28.43
2023-03-12T12:39:49.865Z,31.93
2023-03-12T12:42:20.818Z,23.83
2023-03-12T12:44:48.800Z,23.20
2023-03-12T12:47:18.571Z,19.60
2023-03-12T12:49:44.868Z,35.93
2023-03-12T12:52:12.830Z,23.90
2023-03-12T12:54:57.955Z,27.27
2023-03-12T12:57:35.368Z,24.47
2023-03-12T13:00:01.636Z,24.20
2023-03-12T13:02:30.882Z,30.67
2023-03-12T13:04:58.480Z,19.90
2023-03-12T13:07:27.745Z,30.17
2023-03-12T13:09:55.518Z,30.67
2023-03-12T13:12:58.257Z,30.07
2023-03-12T13:15:30.675Z,24.60
2023-03-12T13:17:59.848Z,20.60
2023-03-12T13:20:31.907Z,24.97
2023-03-12T13:23:03.703Z,17.63
2023-03-12T13:25:48.687Z,14.80
2023-03-12T13:28:30.245Z,25.53
2023-03-12T13:30:57.432Z,19.60
2023-03-12T13:33:38.902Z,28.10
2023-03-12T13:36:23.454Z,27.10
2023-03-12T13:39:08.204Z,38.27
2023-03-12T13:41:38.793Z,29.80
2023-03-12T13:44:23.360Z,25.57
2023-03-12T13:46:58.329Z,29.03
2023-03-12T13:49:25.168Z,24.53
2023-03-12T13:51:56.482Z,19.83
2023-03-12T13:54:25.361Z,19.80
2023-03-12T13:56:59.732Z,22.67
2023-03-12T13:59:27.190Z,29.30
2023-03-12T14:01:55.473Z,14.77
2023-03-12T14:04:28.974Z,32.93
2023-03-12T14:07:14.472Z,37.63
2023-03-12T14:09:46.950Z,15.43
2023-03-12T14:12:13.276Z,24.47
2023-03-12T14:14:41.458Z,30.57
2023-03-12T14:17:16.353Z,14.40
2023-03-12T14:19:45.784Z,25.93
2023-03-12T14:22:13.095Z,24.27
2023-03-12T14:24:41.221Z,26.13
2023-03-12T14:27:13.861Z,29.57
2023-03-12T14:29:55.519Z,15.27
2023-03-12T14:32:29.734Z,20.07
2023-03-12T14:35:08.265Z,22.73
2023-03-12T14:37:43.952Z,21.67
2023-03-12T14:40:44.604Z,17.57
2023-03-12T14:43:20.724Z,26.43
2023-03-12T14:45:49.610Z,21.47
2023-03-12T14:48:20.339Z,22.50
2023-03-12T14:50:48.613Z,20.33
2023-03-12T14:53:28.156Z,34.73
2023-03-12T14:56:01.656Z,29.80
2023-03-12T14:58:28.215Z,21.77
2023-03-12T15:00:57.607Z,35.77
2023-03-12T15:03:24.392Z,23.57
2023-03-12T15:05:51.866Z,19.67
2023-03-12T15:08:18.564Z,24.90
2023-03-12T15:11:03.059Z,21.00
2023-03-12T15:13:29.453Z,28.33
2023-03-12T15:15:56.075Z,35.67
2023-03-12T15:18:30.526Z,17.13
2023-03-12T15:20:57.743Z,26.97
2023-03-12T15:23:28.154Z,31.37
2023-03-12T15:26:09.942Z,31.20
2023-03-12T15:28:36.630Z,13.77
2023-03-12T15:31:11.798Z,32.37
2023-03-12T15:33:39.047Z,25.57
2023-03-12T15:36:17.148Z,21.43
2023-03-12T15:38:45.950Z,24.67
2023-03-12T15:41:18.524Z,23.47
2023-03-12T15:43:46.843Z,26.30
2023-03-12T15:46:13.988Z,22.47
2023-03-12T15:48:41.178Z,22.37
2023-03-12T15:51:14.676Z,18.73
2023-03-12T15:53:40.990Z,27.27
2023-03-12T15:56:09.019Z,24.00
2023-03-12T15:58:36.456Z,21.93
2023-03-12T16:01:12.901Z,23.73
2023-03-12T16:03:40.095Z,18.00
2023-03-12T16:06:10.874Z,31.90
2023-03-12T16:08:43.677Z,25.60
2023-03-12T16:11:14.374Z,24.67
2023-03-12T16:13:42.005Z,31.13
2023-03-12T16:16:11.416Z,36.63
2023-03-12T16:18:37.850Z,34.17
2023-03-12T16:21:04.447Z,29.03
2023-03-12T16:23:30.742Z,27.37
2023-03-12T16:25:57.658Z,27.03
2023-03-12T16:28:24.978Z,30.43
2023-03-12T16:30:51.677Z,32.37
2023-03-12T16:33:19.487Z,37.73
2023-03-12T16:35:47.347Z,29.43
2023-03-12T16:38:13.814Z,30.40
2023-03-12T16:40:48.126Z,34.67
2023-03-12T16:43:21.685Z,24.73
2023-03-12T16:45:48.878Z,26.47
2023-03-12T16:48:20.943Z,30.87
2023-03-12T16:50:51.397Z,29.00
2023-03-12T16:53:19.061Z,25.03
2023-03-12T16:55:47.254Z,34.37
2023-03-12T16:58:15.203Z,23.53
2023-03-12T17:00:42.463Z,26.77
2023-03-12T17:03:15.739Z,28.80
2023-03-12T17:05:42.080Z,23.67
2023-03-12T17:08:08.785Z,40.53
2023-03-12T17:10:35.114Z,20.97
2023-03-12T17:13:01.486Z,31.40
2023-03-12T17:15:30.640Z,36.97
2023-03-12T17:17:59.038Z,28.13
2023-03-12T17:20:25.483Z,30.53
2023-03-12T17:22:51.853Z,26.60
2023-03-12T17:25:23.453Z,22.03
2023-03-12T17:27:50.344Z,31.13
2023-03-12T17:30:17.343Z,25.00
2023-03-12T17:32:43.794Z,24.77
2023-03-12T17:35:10.566Z,18.37
2023-03-12T17:37:36.898Z,25.97
2023-03-12T17:40:08.296Z,21.53
2023-03-12T17:42:35.147Z,20.03
2023-03-12T17:45:01.923Z,14.77
2023-03-12T17:47:30.836Z,15.67
2023-03-12T17:49:57.419Z,22.80
2023-03-12T17:52:24.392Z,16.27
2023-03-12T17:54:50.974Z,11.90
2023-03-12T17:57:17.272Z,15.30
2023-03-12T17:59:43.690Z,18.53
2023-03-12T18:02:10.940Z,20.17
2023-03-12T18:04:37.353Z,14.13
2023-03-12T18:07:04.837Z,17.97
2023-03-12T18:09:31.305Z,15.03
2023-03-12T18:11:57.755Z,18.63
2023-03-12T18:14:24.115Z,17.17
2023-03-12T18:16:50.418Z,22.30
2023-03-12T18:19:17.049Z,13.30
2023-03-12T18:21:43.379Z,9.80
2023-03-12T18:24:14.021Z,21.60
2023-03-12T18:26:41.057Z,16.67
2023-03-12T18:29:07.503Z,19.53
2023-03-12T18:31:33.920Z,17.90
2023-03-12T18:34:00.266Z,11.50
2023-03-12T18:36:29.415Z,19.90
2023-03-12T18:38:55.749Z,19.47
2023-03-12T18:41:22.535Z,15.13
2023-03-12T18:43:48.986Z,26.70
2023-03-12T18:46:15.458Z,14.63
2023-03-12T18:48:44.024Z,19.57
2023-03-12T18:51:10.605Z,15.73
2023-03-12T18:53:37.001Z,23.40
2023-03-12T18:56:03.439Z,18.77
2023-03-12T18:58:29.833Z,14.10
2023-03-12T19:00:57.235Z,11.70
2023-03-12T19:03:24.377Z,22.40
2023-03-12T19:06:00.481Z,15.67
2023-03-12T19:08:26.790Z,14.60
2023-03-12T19:10:53.295Z,22.10
2023-03-12T19:13:19.625Z,15.93
2023-03-12T19:15:46.131Z,19.43
2023-03-12T19:18:12.545Z,13.20
2023-03-12T19:20:38.954Z,22.33
2023-03-12T19:23:05.320Z,14.27
2023-03-12T19:25:32.089Z,23.00
2023-03-12T19:27:58.504Z,16.43
2023-03-12T19:30:30.405Z,10.10
2023-03-12T19:32:56.851Z,16.50
2023-03-12T19:35:23.206Z,10.47
2023-03-12T19:37:49.533Z,22.60
2023-03-12T19:40:15.971Z,11.93
2023-03-12T19:42:42.447Z,13.97
2023-03-12T19:45:09.226Z,17.17
2023-03-12T19:47:35.679Z,14.77
2023-03-12T19:50:02.151Z,14.07
2023-03-12T19:52:28.588Z,12.97
2023-03-12T19:55:04.410Z,12.70
2023-03-12T19:57:31.551Z,9.03
2023-03-12T19:59:59.170Z,15.67
2023-03-12T20:02:26.304Z,14.30
2023-03-12T20:04:55.484Z,14.87
2023-03-12T20:07:21.892Z,19.33
2023-03-12T20:09:48.375Z,20.30
2023-03-12T20:12:14.713Z,16.77
2023-03-12T20:14:42.768Z,16.70
2023-03-12T20:17:09.976Z,14.37
2023-03-12T20:19:36.626Z,13.90
2023-03-12T20:22:03.048Z,19.37
2023-03-12T20:24:29.435Z,14.03
2023-03-12T20:26:55.868Z,17.73
2023-03-12T20:29:22.189Z,14.30
2023-03-12T20:31:48.566Z,13.90
2023-03-12T20:34:14.988Z,17.17
2023-03-12T20:36:41.436Z,17.43
2023-03-12T20:39:07.881Z,19.70
2023-03-12T20:41:35.069Z,20.10
2023-03-12T20:44:01.514Z,22.13
2023-03-12T20:46:27.921Z,20.07
2023-03-12T20:48:56.621Z,25.20
2023-03-12T20:51:24.698Z,19.10
2023-03-12T20:53:51.120Z,18.93
2023-03-12T20:56:18.507Z,18.23
2023-03-12T20:58:44.902Z,14.03
2023-03-12T21:01:11.345Z,13.97
2023-03-12T21:03:37.788Z,24.77
2023-03-12T21:06:04.233Z,15.27
2023-03-12T21:08:30.722Z,14.00
2023-03-12T21:10:57.145Z,19.53
2023-03-12T21:13:23.520Z,16.73
2023-03-12T21:15:50.156Z,20.40
2023-03-12T21:18:17.092Z,18.50
2023-03-12T21:20:44.007Z,12.97
2023-03-12T21:23:10.872Z,16.50
2023-03-12T21:25:38.085Z,19.83
2023-03-12T21:28:05.119Z,19.07
2023-03-12T21:30:31.645Z,26.70
2023-03-12T21:32:58.074Z,19.77
2023-03-12T21:35:24.590Z,18.73
2023-03-12T21:37:51.020Z,15.20
2023-03-12T21:40:17.530Z,16.17
2023-03-12T21:42:44.826Z,12.77
2023-03-12T21:45:11.298Z,18.20
2023-03-12T21:47:38.255Z,8.03
2023-03-12T21:50:05.218Z,25.53
2023-03-12T21:52:33.570Z,19.57
2023-03-12T21:54:59.883Z,14.87
2023-03-12T21:57:26.472Z,19.03
2023-03-12T21:59:52.877Z,23.43
2023-03-12T22:02:19.235Z,17.40
2023-03-12T22:04:45.588Z,20.80
2023-03-12T22:07:11.902Z,20.33
2023-03-12T22:09:38.218Z,11.67
2023-03-12T22:12:04.722Z,16.27
2023-03-12T22:14:31.050Z,15.43
2023-03-12T22:17:08.255Z,15.83
2023-03-12T22:19:34.618Z,16.87
2023-03-12T22:22:00.886Z,17.77
2023-03-12T22:24:27.280Z,13.37
2023-03-12T22:26:53.701Z,19.30
2023-03-12T22:29:20.072Z,20.33
2023-03-12T22:31:46.363Z,15.97
2023-03-12T22:34:12.993Z,13.97
2023-03-12T22:36:39.778Z,17.53
2023-03-12T22:39:06.257Z,21.87
2023-03-12T22:41:32.978Z,22.43
2023-03-12T22:44:07.160Z,18.73
2023-03-12T22:46:33.690Z,13.87
2023-03-12T22:49:01.198Z,17.30
2023-03-12T22:51:28.390Z,19.60
2023-03-12T22:53:54.820Z,15.80
2023-03-12T22:56:21.784Z,13.73
2023-03-12T22:58:48.860Z,20.67
2023-03-12T23:01:16.495Z,17.00
2023-03-12T23:03:43.645Z,14.50
2023-03-12T23:06:20.025Z,18.77
2023-03-12T23:08:47.849Z,25.33
2023-03-12T23:11:14.822Z,23.53
2023-03-12T23:13:42.376Z,23.40
2023-03-12T23:16:10.293Z,19.47
2023-03-12T23:18:38.281Z,18.67
2023-03-12T23:21:06.170Z,18.77
2023-03-12T23:23:32.864Z,23.30
2023-03-12T23:26:00.125Z,16.07
2023-03-12T23:28:27.393Z,17.50
2023-03-12T23:30:55.197Z,29.63
2023-03-12T23:33:21.753Z,15.80
2023-03-12T23:35:55.370Z,21.77
2023-03-12T23:38:21.963Z,17.00
2023-03-12T23:40:48.489Z,17.90
2023-03-12T23:43:14.948Z,24.57
2023-03-12T23:45:41.417Z,12.07
2023-03-12T23:48:10.440Z,23.90
2023-03-12T23:50:36.829Z,15.00
2023-03-12T23:53:03.392Z,12.67
2023-03-12T23:55:29.733Z,15.73
2023-03-12T23:57:56.037Z,22.23
